KSAT

San Antonio International Airport

San Antonio, Texas, USA
METAR KSAT 181451Z 00000KT 10SM OVC050 02/M09 A3052 RMK AO2 SLP331 T00171089 53001
Observed Flight Rules
Jan-18 @ 14:51 UTC (46 minutes ago) Visual Flight Rules
Wind Visibility Clouds
Calm 10 miles
  • Overcast at 5,000' AGL
Temperatures Readings
Current 2°C / 36°F
Dewpoint -9°C / 16°F
Humidity 44%
Altimeter 30.52" Hg
Pressure 1033.1 hPa
Elevation 243
METAR KSAT 181451Z 00000KT 10SM OVC050 02/M09 A3052 RMK AO2 SLP331 T00171089 53001
Observed Flight Rules
Jan-18 @ 14:51 UTC
(46 minutes ago)
VFR
Wind Visibility
Calm 10 miles
Clouds
  • Overcast at 5,000' AGL
Temperature Dewpoint
2°C / 36°F -9°C / 16°F
Humidity Altimeter Pressure
44% 30.52" Hg 1033.1 hPa